Bullhead City, AZ

2:53 AM MST on October 17, 2017 (GMT -0700)
Laughlin-Bullhead International

Weather History for KIFP - February, 2014

Change the Weather History Date:

Wednesday, February 5, 2014

  Actual Average Record
Temperature  
Mean Temperature 54 °F -  
Max Temperature 64 °F 64 °F 80 °F (2009)
Min Temperature 44 °F 46 °F 36 °F (1989)
Degree Days  
Heating Degree Days 11    
Growing Degree Days 4 (Base 50)    
Moisture  
Dew Point 24 °F    
Average Humidity 33    
Maximum Humidity 50    
Minimum Humidity 22    
Precipitation  
Precipitation 0.00 in - - ()
Sea Level Pressure  
Sea Level Pressure 30.04 in    
Wind  
Wind Speed 4 mph (North)    
Max Wind Speed 18 mph    
Max Gust Speed 20 mph    
Visibility 10 miles    
Events      
Averages and records for this station are not official NWS values.
T = Trace of Precipitation, MM = Missing Value Source: NWS Daily Summary

Daily Weather History Graph

Daily Weather History Graph

Search for Another Location

Airport or City:

Trip Planner

Search our weather history database for the weather conditions in past years. The results will help you decide how hot, cold, wet, or windy it might be!

Date:

Astronomy

Feb. 05, 2014 Rise Set
Actual Time 7:34 AM MST 6:10 PM MST
Civil Twilight 7:07 AM MST 6:37 PM MST
Nautical Twilight 6:37 AM MST 7:07 PM MST
Astronomical Twilight 6:07 AM MST 7:37 PM MST
Moon 11:07 AM MST (2/5) No Moon Set
Length of Visible Light 11h 29m
Length of Day
10h 36m
Waxing Crescent, 40% of the Moon is Illuminated
Feb 5
Waxing Crescent
Feb 6
First Quarter
Feb 14
Full
Feb 22
Last Quarter
Mar 1
New

Hourly Weather History & Observations

Time (MST) Temp. Windchill Dew Point Humidity Pressure Visibility Wind Dir Wind Speed Gust Speed Precip Events Conditions
12:15 AM 51.8 °F - 24.8 °F 35% 30.05 in 10.0 mi North 3.5 mph - N/A   Clear
12:35 AM 53.6 °F - 24.8 °F 33% 30.05 in 10.0 mi Calm Calm - N/A   Clear
12:55 AM 50.0 °F - 24.8 °F 37% 30.05 in 10.0 mi North 3.5 mph - N/A   Clear
1:15 AM 50.0 °F - 24.8 °F 37% 30.05 in 10.0 mi Calm Calm - N/A   Clear
1:35 AM 48.2 °F - 24.8 °F 40% 30.05 in 10.0 mi Calm Calm - N/A   Clear
1:55 AM 50.0 °F - 24.8 °F 37% 30.05 in 10.0 mi Calm Calm - N/A   Clear
2:15 AM 50.0 °F - 24.8 °F 37% 30.06 in 10.0 mi Calm Calm - N/A   Clear
2:35 AM 50.0 °F - 24.8 °F 37% 30.06 in 10.0 mi Calm Calm - N/A   Clear
2:55 AM 50.0 °F - 24.8 °F 37% 30.06 in 10.0 mi NNE 4.6 mph - N/A   Clear
3:15 AM 50.0 °F - 24.8 °F 37% 30.06 in 10.0 mi Calm Calm - N/A   Clear
3:35 AM 48.2 °F - 24.8 °F 40% 30.06 in 10.0 mi Calm Calm - N/A   Clear
3:55 AM 48.2 °F - 26.6 °F 43% 30.06 in 10.0 mi North 3.5 mph - N/A   Clear
4:15 AM 48.2 °F - 24.8 °F 40% 30.06 in 10.0 mi Calm Calm - N/A   Clear
4:35 AM 46.4 °F - 24.8 °F 43% 30.05 in 10.0 mi Calm Calm - N/A   Clear
4:55 AM 48.2 °F - 24.8 °F 40% 30.05 in 10.0 mi Calm Calm - N/A   Clear
5:15 AM 48.2 °F - 24.8 °F 40% 30.04 in 10.0 mi Calm Calm - N/A   Clear
5:35 AM 48.2 °F - 24.8 °F 40% 30.04 in 10.0 mi Calm Calm - N/A   Clear
5:55 AM 46.4 °F - 24.8 °F 43% 30.04 in 10.0 mi Calm Calm - N/A   Clear
6:15 AM 46.4 °F - 24.8 °F 43% 30.05 in 10.0 mi Calm Calm - N/A   Clear
6:35 AM 44.6 °F - 24.8 °F 46% 30.05 in 10.0 mi Calm Calm - N/A   Clear
6:55 AM 46.4 °F - 23.0 °F 40% 30.06 in 10.0 mi Calm Calm - N/A   Clear
7:15 AM 46.4 °F - 26.6 °F 46% 30.06 in 10.0 mi Calm Calm - N/A   Clear
7:35 AM 44.6 °F - 24.8 °F 46% 30.06 in 10.0 mi Calm Calm - N/A   Clear
7:55 AM 46.4 °F 45.2 °F 24.8 °F 43% 30.06 in 10.0 mi NNE 3.5 mph - N/A   Clear
8:15 AM 46.4 °F 44.3 °F 28.4 °F 50% 30.07 in 10.0 mi NNW 4.6 mph - N/A   Clear
8:35 AM 48.2 °F - 30.2 °F 50% 30.08 in 10.0 mi NNW 8.1 mph - N/A   Clear
8:55 AM 50.0 °F - 26.6 °F 40% 30.08 in 10.0 mi NNE 6.9 mph - N/A   Clear
9:15 AM 51.8 °F - 23.0 °F 33% 30.09 in 10.0 mi NNE 12.7 mph - N/A   Clear
9:35 AM 53.6 °F - 21.2 °F 28% 30.10 in 10.0 mi North 11.5 mph - N/A   Clear
9:55 AM 51.8 °F - 21.2 °F 30% 30.11 in 10.0 mi North 13.8 mph - N/A   Clear
10:15 AM 53.6 °F - 23.0 °F 30% 30.12 in 10.0 mi North 9.2 mph - N/A   Clear
10:35 AM 53.6 °F - 21.2 °F 28% 30.12 in 10.0 mi North 16.1 mph - N/A   Clear
10:55 AM 55.4 °F - 21.2 °F 26% 30.12 in 10.0 mi North 16.1 mph - N/A   Clear
11:15 AM 55.4 °F - 23.0 °F 29% 30.12 in 10.0 mi NNE 18.4 mph - N/A   Clear
11:35 AM 55.4 °F - 21.2 °F 26% 30.11 in 10.0 mi North 15.0 mph 19.6 mph N/A   Clear
11:55 AM 57.2 °F - 21.2 °F 25% 30.10 in 10.0 mi NNE 13.8 mph - N/A   Clear
12:15 PM 57.2 °F - 21.2 °F 25% 30.08 in 10.0 mi NNE 15.0 mph - N/A   Clear
12:35 PM 57.2 °F - 23.0 °F 27% 30.07 in 10.0 mi NNE 10.4 mph - N/A   Clear
12:55 PM 59.0 °F - 23.0 °F 25% 30.05 in 10.0 mi North 12.7 mph - N/A   Clear
1:15 PM 59.0 °F - 23.0 °F 25% 30.04 in 10.0 mi NNW 12.7 mph - N/A   Clear
1:35 PM 60.8 °F - 23.0 °F 23% 30.03 in 10.0 mi North 11.5 mph - N/A   Clear
1:55 PM 62.6 °F - 24.8 °F 24% 30.02 in 10.0 mi NNE 8.1 mph - N/A   Partly Cloudy
2:15 PM 62.6 °F - 24.8 °F 24% 30.01 in 10.0 mi North 8.1 mph - N/A   Clear
2:35 PM 62.6 °F - 24.8 °F 24% 30.00 in 10.0 mi North 8.1 mph - N/A   Clear
2:55 PM 62.6 °F - 24.8 °F 24% 29.99 in 10.0 mi North 6.9 mph - N/A   Clear
3:15 PM 62.6 °F - 24.8 °F 24% 29.99 in 10.0 mi NNW 6.9 mph - N/A   Clear
3:35 PM 64.4 °F - 24.8 °F 22% 29.99 in 10.0 mi NW 5.8 mph - N/A   Clear
3:55 PM 64.4 °F - 26.6 °F 24% 29.98 in 10.0 mi WNW 5.8 mph - N/A   Clear
4:15 PM 62.6 °F - 26.6 °F 26% 29.99 in 10.0 mi NNW 4.6 mph - N/A   Clear
4:35 PM 62.6 °F - 24.8 °F 24% 29.98 in 10.0 mi WNW 3.5 mph - N/A   Clear
4:55 PM 62.6 °F - 24.8 °F 24% 29.98 in 10.0 mi WNW 3.5 mph - N/A   Clear
5:15 PM 64.4 °F - 24.8 °F 22% 29.98 in 10.0 mi West 3.5 mph - N/A   Clear
5:35 PM 62.6 °F - 24.8 °F 24% 29.99 in 10.0 mi Calm Calm - N/A   Clear
5:55 PM 62.6 °F - 24.8 °F 24% 29.99 in 10.0 mi Calm Calm - N/A   Clear
6:15 PM 62.6 °F - 24.8 °F 24% 29.98 in 10.0 mi Calm Calm - N/A   Clear
6:35 PM 60.8 °F - 24.8 °F 25% 29.99 in 10.0 mi Calm Calm - N/A   Clear
6:55 PM 59.0 °F - 24.8 °F 27% 29.99 in 10.0 mi Calm Calm - N/A   Clear
7:15 PM 57.2 °F - 24.8 °F 29% 29.99 in 10.0 mi Calm Calm - N/A   Clear
7:35 PM 55.4 °F - 24.8 °F 31% 29.99 in 10.0 mi Calm Calm - N/A   Clear
7:55 PM 55.4 °F - 23.0 °F 29% 30.00 in 10.0 mi Calm Calm - N/A   Clear
8:15 PM 55.4 °F - 24.8 °F 31% 30.01 in 10.0 mi Calm Calm - N/A   Clear
8:35 PM 55.4 °F - 24.8 °F 31% 30.01 in 10.0 mi East 3.5 mph - N/A   Clear
8:55 PM 51.8 °F - 23.0 °F 33% 30.02 in 10.0 mi East 3.5 mph - N/A   Clear
9:15 PM 51.8 °F - 23.0 °F 33% 30.02 in 10.0 mi East 3.5 mph - N/A   Clear
9:35 PM 51.8 °F - 23.0 °F 33% 30.03 in 10.0 mi ENE 4.6 mph - N/A   Clear
9:55 PM 50.0 °F - 24.8 °F 37% 30.03 in 10.0 mi SE 3.5 mph - N/A   Clear
10:15 PM 50.0 °F - 23.0 °F 35% 30.03 in 10.0 mi SE 4.6 mph - N/A   Clear
10:35 PM 50.0 °F - 24.8 °F 37% 30.03 in 10.0 mi Calm Calm - N/A   Clear
10:55 PM 50.0 °F - 24.8 °F 37% 30.02 in 10.0 mi Calm Calm - N/A   Clear
11:15 PM 48.2 °F - 24.8 °F 40% 30.02 in 10.0 mi North 4.6 mph - N/A   Clear
11:35 PM 48.2 °F - 24.8 °F 40% 30.02 in 10.0 mi NNW 3.5 mph - N/A   Clear
11:55 PM 46.4 °F 45.2 °F 23.0 °F 40% 30.03 in 10.0 mi SSE 3.5 mph - N/A   Clear